Metar Aviation Weather Data YMML

12°C Temp
10°C Dewpoint
% Humidity
Temperature
13 KM/H
8 MPH
7 KTS
10°
Due North

Wind Speed
Clear
Conditions
Pressure 1011.92 (hPa) - 29.88 (in)
Visibility 6.2 (mi) - 10 (km)

Current Conditions
YMML
Metar :YMML 141000Z 01007KT CAVOK 12/10 Q1012
Fri 14th August 21:00 pm

  Metar Aviation API Data Provided by https://www.checkwx.com/ PHP scripts by weather34.com ©2020